sensor_id;sensor_type;location;lat;lon;timestamp;pressure;altitude;pressure_sealevel;temperature;humidity
39341;BME280;25059;52.132;21.062;2023-02-14T00:00:08;101867.19;;;4.13;100.00
39341;BME280;25059;52.132;21.062;2023-02-14T00:03:13;101874.09;;;4.11;100.00
39341;BME280;25059;52.132;21.062;2023-02-14T00:06:11;101863.66;;;4.08;100.00
39341;BME280;25059;52.132;21.062;2023-02-14T00:08:56;101853.25;;;4.08;100.00
39341;BME280;25059;52.132;21.062;2023-02-14T00:11:42;101866.25;;;4.08;100.00
39341;BME280;25059;52.132;21.062;2023-02-14T00:14:26;101871.44;;;4.05;100.00
39341;BME280;25059;52.132;21.062;2023-02-14T00:17:31;101875.78;;;4.06;100.00
39341;BME280;25059;52.132;21.062;2023-02-14T00:20:15;101876.66;;;4.06;100.00
39341;BME280;25059;52.132;21.062;2023-02-14T00:23:00;101882.69;;;4.04;100.00
39341;BME280;25059;52.132;21.062;2023-02-14T00:25:44;101877.53;;;4.07;100.00
39341;BME280;25059;52.132;21.062;2023-02-14T00:28:29;101887.06;;;4.06;100.00
39341;BME280;25059;52.132;21.062;2023-02-14T00:31:14;101870.53;;;4.03;100.00
39341;BME280;25059;52.132;21.062;2023-02-14T00:33:59;101885.28;;;4.02;100.00
39341;BME280;25059;52.132;21.062;2023-02-14T00:36:44;101893.06;;;4.01;100.00
39341;BME280;25059;52.132;21.062;2023-02-14T00:39:29;101887.91;;;4.04;100.00
39341;BME280;25059;52.132;21.062;2023-02-14T00:42:14;101889.59;;;4.00;100.00
39341;BME280;25059;52.132;21.062;2023-02-14T00:44:59;101890.50;;;4.04;100.00
39341;BME280;25059;52.132;21.062;2023-02-14T00:47:43;101894.84;;;4.03;100.00
39341;BME280;25059;52.132;21.062;2023-02-14T00:50:28;101890.50;;;4.04;100.00
39341;BME280;25059;52.132;21.062;2023-02-14T00:53:13;101904.38;;;4.03;100.00
39341;BME280;25059;52.132;21.062;2023-02-14T00:55:58;101883.56;;;4.03;100.00
39341;BME280;25059;52.132;21.062;2023-02-14T00:58:42;101875.75;;;4.03;100.00
39341;BME280;25059;52.132;21.062;2023-02-14T01:01:27;101887.88;;;4.02;100.00
39341;BME280;25059;52.132;21.062;2023-02-14T01:07:16;101879.16;;;3.99;100.00
39341;BME280;25059;52.132;21.062;2023-02-14T01:10:01;101886.06;;;3.97;100.00
39341;BME280;25059;52.132;21.062;2023-02-14T01:12:45;101893.88;;;3.97;100.00
39341;BME280;25059;52.132;21.062;2023-02-14T01:15:31;101886.03;;;3.94;100.00
39341;BME280;25059;52.132;21.062;2023-02-14T01:18:17;101880.81;;;3.92;100.00
39341;BME280;25059;52.132;21.062;2023-02-14T01:23:56;101880.81;;;3.92;100.00
39341;BME280;25059;52.132;21.062;2023-02-14T01:26:41;101878.19;;;3.91;100.00
39341;BME280;25059;52.132;21.062;2023-02-14T01:29:26;101879.91;;;3.90;100.00
39341;BME280;25059;52.132;21.062;2023-02-14T01:32:10;101888.56;;;3.87;100.00
39341;BME280;25059;52.132;21.062;2023-02-14T01:34:55;101895.50;;;3.87;100.00
39341;BME280;25059;52.132;21.062;2023-02-14T01:37:39;101899.78;;;3.85;100.00
39341;BME280;25059;52.132;21.062;2023-02-14T01:40:24;101898.94;;;3.86;100.00
39341;BME280;25059;52.132;21.062;2023-02-14T01:43:14;101894.56;;;3.83;100.00
39341;BME280;25059;52.132;21.062;2023-02-14T01:45:59;101915.31;;;3.79;100.00
39341;BME280;25059;52.132;21.062;2023-02-14T01:48:44;101904.03;;;3.77;100.00
39341;BME280;25059;52.132;21.062;2023-02-14T01:55:21;101897.03;;;3.73;100.00
39341;BME280;25059;52.132;21.062;2023-02-14T01:58:10;101900.44;;;3.69;100.00
39341;BME280;25059;52.132;21.062;2023-02-14T02:00:57;101898.66;;;3.66;100.00
39341;BME280;25059;52.132;21.062;2023-02-14T02:04:00;101894.31;;;3.65;100.00
39341;BME280;25059;52.132;21.062;2023-02-14T02:06:51;101883.91;;;3.64;100.00
39341;BME280;25059;52.132;21.062;2023-02-14T02:09:38;101892.56;;;3.63;100.00
39341;BME280;25059;52.132;21.062;2023-02-14T02:12:27;101882.09;;;3.58;100.00
39341;BME280;25059;52.132;21.062;2023-02-14T02:15:11;101888.13;;;3.55;100.00
39341;BME280;25059;52.132;21.062;2023-02-14T02:20:51;101900.25;;;3.55;100.00
39341;BME280;25059;52.132;21.062;2023-02-14T02:23:59;101906.28;;;3.54;100.00
39341;BME280;25059;52.132;21.062;2023-02-14T02:27:10;101907.16;;;3.54;100.00
39341;BME280;25059;52.132;21.062;2023-02-14T02:45:29;101914.81;;;3.45;100.00
39341;BME280;25059;52.132;21.062;2023-02-14T02:48:20;101925.19;;;3.44;100.00
39341;BME280;25059;52.132;21.062;2023-02-14T02:51:14;101912.19;;;3.42;100.00
39341;BME280;25059;52.132;21.062;2023-02-14T02:54:32;101913.84;;;3.39;100.00
39341;BME280;25059;52.132;21.062;2023-02-14T02:57:24;101925.91;;;3.34;100.00
39341;BME280;25059;52.132;21.062;2023-02-14T03:00:11;101919.84;;;3.35;100.00
39341;BME280;25059;52.132;21.062;2023-02-14T03:02:57;101922.44;;;3.33;100.00
39341;BME280;25059;52.132;21.062;2023-02-14T03:06:03;101921.50;;;3.30;100.00
39341;BME280;25059;52.132;21.062;2023-02-14T03:08:47;101929.28;;;3.28;100.00
39341;BME280;25059;52.132;21.062;2023-02-14T03:11:32;101920.59;;;3.26;100.00
39341;BME280;25059;52.132;21.062;2023-02-14T03:14:25;101924.88;;;3.24;100.00
39341;BME280;25059;52.132;21.062;2023-02-14T03:17:42;101927.41;;;3.19;100.00
39341;BME280;25059;52.132;21.062;2023-02-14T03:20:48;101930.81;;;3.17;100.00
39341;BME280;25059;52.132;21.062;2023-02-14T03:23:54;101932.53;;;3.15;100.00
39341;BME280;25059;52.132;21.062;2023-02-14T03:26:49;101926.53;;;3.19;100.00
39341;BME280;25059;52.132;21.062;2023-02-14T03:32:46;101927.25;;;3.10;100.00
39341;BME280;25059;52.132;21.062;2023-02-14T03:35:40;101931.69;;;3.17;100.00
39341;BME280;25059;52.132;21.062;2023-02-14T03:41:31;101945.50;;;3.13;100.00
39341;BME280;25059;52.132;21.062;2023-02-14T03:44:20;101938.56;;;3.14;100.00
39341;BME280;25059;52.132;21.062;2023-02-14T03:47:11;101938.53;;;3.12;100.00
39341;BME280;25059;52.132;21.062;2023-02-14T03:50:00;101937.69;;;3.12;100.00
39341;BME280;25059;52.132;21.062;2023-02-14T03:52:49;101944.50;;;3.07;100.00
39341;BME280;25059;52.132;21.062;2023-02-14T03:55:40;101934.91;;;3.03;100.00
39341;BME280;25059;52.132;21.062;2023-02-14T03:58:31;101923.63;;;3.01;100.00
39341;BME280;25059;52.132;21.062;2023-02-14T04:01:23;101946.91;;;2.96;100.00
39341;BME280;25059;52.132;21.062;2023-02-14T04:04:09;101932.25;;;2.98;100.00
39341;BME280;25059;52.132;21.062;2023-02-14T04:06:55;101926.16;;;2.96;100.00
39341;BME280;25059;52.132;21.062;2023-02-14T04:09:40;101927.81;;;2.92;100.00
39341;BME280;25059;52.132;21.062;2023-02-14T04:12:24;101936.47;;;2.93;100.00
39341;BME280;25059;52.132;21.062;2023-02-14T04:15:10;101930.44;;;2.94;100.00
39341;BME280;25059;52.132;21.062;2023-02-14T04:17:55;101926.16;;;2.96;100.00
39341;BME280;25059;52.132;21.062;2023-02-14T04:21:15;101926.91;;;2.90;100.00
39341;BME280;25059;52.132;21.062;2023-02-14T04:24:01;101928.59;;;2.88;100.00
39341;BME280;25059;52.132;21.062;2023-02-14T04:26:46;101927.78;;;2.91;100.00
39341;BME280;25059;52.132;21.062;2023-02-14T04:29:40;101931.19;;;2.88;100.00
39341;BME280;25059;52.132;21.062;2023-02-14T04:32:25;101938.94;;;2.85;100.00
39341;BME280;25059;52.132;21.062;2023-02-14T04:35:09;101944.19;;;2.88;100.00
39341;BME280;25059;52.132;21.062;2023-02-14T04:37:54;101942.41;;;2.86;100.00
39341;BME280;25059;52.132;21.062;2023-02-14T04:40:39;101948.44;;;2.85;100.00
39341;BME280;25059;52.132;21.062;2023-02-14T04:43:23;101956.31;;;2.88;100.00
39341;BME280;25059;52.132;21.062;2023-02-14T04:46:07;101956.31;;;2.88;100.00
39341;BME280;25059;52.132;21.062;2023-02-14T04:48:52;101957.09;;;2.84;100.00
39341;BME280;25059;52.132;21.062;2023-02-14T04:51:37;101958.00;;;2.86;100.00
39341;BME280;25059;52.132;21.062;2023-02-14T04:54:22;101954.56;;;2.87;100.00
39341;BME280;25059;52.132;21.062;2023-02-14T04:57:07;101962.34;;;2.87;100.00
39341;BME280;25059;52.132;21.062;2023-02-14T04:59:52;101961.53;;;2.89;100.00
39341;BME280;25059;52.132;21.062;2023-02-14T05:02:36;101965.81;;;2.87;100.00
39341;BME280;25059;52.132;21.062;2023-02-14T05:05:21;101964.03;;;2.85;100.00
39341;BME280;25059;52.132;21.062;2023-02-14T05:08:06;101979.66;;;2.86;100.00
39341;BME280;25059;52.132;21.062;2023-02-14T05:10:50;101967.53;;;2.87;100.00
39341;BME280;25059;52.132;21.062;2023-02-14T05:13:35;101981.34;;;2.84;100.00
39341;BME280;25059;52.132;21.062;2023-02-14T05:16:19;101988.28;;;2.85;100.00
39341;BME280;25059;52.132;21.062;2023-02-14T05:19:04;101985.63;;;2.82;100.00
39341;BME280;25059;52.132;21.062;2023-02-14T05:21:49;101994.34;;;2.86;100.00
39341;BME280;25059;52.132;21.062;2023-02-14T05:24:33;101977.00;;;2.83;100.00
39341;BME280;25059;52.132;21.062;2023-02-14T05:27:18;101986.44;;;2.80;100.00
39341;BME280;25059;52.132;21.062;2023-02-14T05:30:03;101990.75;;;2.79;100.00
39341;BME280;25059;52.132;21.062;2023-02-14T05:32:48;101979.47;;;2.77;100.00
39341;BME280;25059;52.132;21.062;2023-02-14T05:35:32;101993.34;;;2.78;100.00
39341;BME280;25059;52.132;21.062;2023-02-14T05:38:17;101994.16;;;2.75;100.00
39341;BME280;25059;52.132;21.062;2023-02-14T05:41:02;101988.94;;;2.75;100.00
39341;BME280;25059;52.132;21.062;2023-02-14T05:43:46;101999.44;;;2.80;100.00
39341;BME280;25059;52.132;21.062;2023-02-14T05:46:31;101993.28;;;2.75;100.00
39341;BME280;25059;52.132;21.062;2023-02-14T05:49:15;101988.13;;;2.78;100.00
39341;BME280;25059;52.132;21.062;2023-02-14T05:52:00;101999.34;;;2.75;100.00
39341;BME280;25059;52.132;21.062;2023-02-14T05:54:45;101995.88;;;2.75;100.00
39341;BME280;25059;52.132;21.062;2023-02-14T05:57:29;101997.56;;;2.73;100.00
39341;BME280;25059;52.132;21.062;2023-02-14T06:00:14;102000.09;;;2.70;100.00
39341;BME280;25059;52.132;21.062;2023-02-14T06:02:59;102013.13;;;2.73;100.00
39341;BME280;25059;52.132;21.062;2023-02-14T06:05:44;101994.09;;;2.72;100.00
39341;BME280;25059;52.132;21.062;2023-02-14T06:08:29;102014.03;;;2.75;100.00
39341;BME280;25059;52.132;21.062;2023-02-14T06:11:13;102013.09;;;2.71;100.00
39341;BME280;25059;52.132;21.062;2023-02-14T06:13:58;102016.59;;;2.72;100.00
39341;BME280;25059;52.132;21.062;2023-02-14T06:16:43;102021.78;;;2.72;100.00
39341;BME280;25059;52.132;21.062;2023-02-14T06:19:27;102020.88;;;2.70;100.00
39341;BME280;25059;52.132;21.062;2023-02-14T06:22:12;102031.28;;;2.71;100.00
39341;BME280;25059;52.132;21.062;2023-02-14T06:24:57;102020.84;;;2.68;100.00
39341;BME280;25059;52.132;21.062;2023-02-14T06:27:42;102013.94;;;2.70;100.00
39341;BME280;25059;52.132;21.062;2023-02-14T06:30:27;102024.28;;;2.67;100.00
39341;BME280;25059;52.132;21.062;2023-02-14T06:33:11;102029.50;;;2.69;100.00
39341;BME280;25059;52.132;21.062;2023-02-14T06:35:56;102031.28;;;2.71;100.00
39341;BME280;25059;52.132;21.062;2023-02-14T06:38:41;102031.25;;;2.70;100.00
39341;BME280;25059;52.132;21.062;2023-02-14T06:41:26;102027.81;;;2.71;100.00
39341;BME280;25059;52.132;21.062;2023-02-14T06:44:11;102046.03;;;2.72;100.00
39341;BME280;25059;52.132;21.062;2023-02-14T06:46:55;102020.00;;;2.69;100.00
39341;BME280;25059;52.132;21.062;2023-02-14T06:49:39;102030.44;;;2.72;100.00
39341;BME280;25059;52.132;21.062;2023-02-14T06:52:25;102036.50;;;2.73;100.00
39341;BME280;25059;52.132;21.062;2023-02-14T06:55:09;102040.81;;;2.72;100.00
39341;BME280;25059;52.132;21.062;2023-02-14T06:57:56;102036.50;;;2.73;100.00
39341;BME280;25059;52.132;21.062;2023-02-14T07:00:41;102031.22;;;2.68;100.00
39341;BME280;25059;52.132;21.062;2023-02-14T07:03:26;102010.44;;;2.68;100.00
39341;BME280;25059;52.132;21.062;2023-02-14T07:06:11;102021.72;;;2.69;100.00
39341;BME280;25059;52.132;21.062;2023-02-14T07:08:56;102024.44;;;2.75;100.00
39341;BME280;25059;52.132;21.062;2023-02-14T07:11:41;102024.47;;;2.76;100.00
39341;BME280;25059;52.132;21.062;2023-02-14T07:14:25;102034.81;;;2.75;100.00
39341;BME280;25059;52.132;21.062;2023-02-14T07:17:10;102031.34;;;2.74;100.00
39341;BME280;25059;52.132;21.062;2023-02-14T07:19:55;102033.16;;;2.78;100.00
39341;BME280;25059;52.132;21.062;2023-02-14T07:22:39;102024.53;;;2.79;100.00
39341;BME280;25059;52.132;21.062;2023-02-14T07:25:24;102038.31;;;2.77;100.00
39341;BME280;25059;52.132;21.062;2023-02-14T07:28:09;102036.63;;;2.79;100.00
39341;BME280;25059;52.132;21.062;2023-02-14T07:30:53;102041.16;;;2.89;100.00
39341;BME280;25059;52.132;21.062;2023-02-14T07:33:37;102047.13;;;2.83;100.00
39341;BME280;25059;52.132;21.062;2023-02-14T07:36:22;102051.47;;;2.84;100.00
39341;BME280;25059;52.132;21.062;2023-02-14T07:39:07;102047.97;;;2.82;100.00
39341;BME280;25059;52.132;21.062;2023-02-14T07:41:52;102073.97;;;2.84;100.00
39341;BME280;25059;52.132;21.062;2023-02-14T07:44:37;102048.03;;;2.87;100.00
39341;BME280;25059;52.132;21.062;2023-02-14T07:47:23;102057.56;;;2.86;100.00
39341;BME280;25059;52.132;21.062;2023-02-14T07:50:08;102050.66;;;2.87;100.00
39341;BME280;25059;52.132;21.062;2023-02-14T07:52:54;102044.72;;;2.94;100.00
39341;BME280;25059;52.132;21.062;2023-02-14T07:55:39;102067.16;;;2.90;100.00
39341;BME280;25059;52.132;21.062;2023-02-14T07:58:23;102065.66;;;3.02;100.00
39341;BME280;25059;52.132;21.062;2023-02-14T08:01:09;102069.19;;;3.05;100.00
39341;BME280;25059;52.132;21.062;2023-02-14T08:03:53;102070.81;;;3.00;100.00
39341;BME280;25059;52.132;21.062;2023-02-14T08:06:39;102076.94;;;3.04;100.00
39341;BME280;25059;52.132;21.062;2023-02-14T08:09:23;102088.19;;;3.03;100.00
39341;BME280;25059;52.132;21.062;2023-02-14T08:12:09;102098.63;;;3.04;100.00
39341;BME280;25059;52.132;21.062;2023-02-14T08:15:13;102092.69;;;3.11;100.00
39341;BME280;25059;52.132;21.062;2023-02-14T08:18:20;102098.00;;;3.17;100.00
39341;BME280;25059;52.132;21.062;2023-02-14T08:21:09;102094.53;;;3.17;100.00
39341;BME280;25059;52.132;21.062;2023-02-14T08:23:54;102097.97;;;3.16;100.00
39341;BME280;25059;52.132;21.062;2023-02-14T08:26:38;102099.72;;;3.17;100.00
39341;BME280;25059;52.132;21.062;2023-02-14T08:29:23;102096.22;;;3.15;100.00
39341;BME280;25059;52.132;21.062;2023-02-14T08:32:07;102096.28;;;3.18;100.00
39341;BME280;25059;52.132;21.062;2023-02-14T08:34:52;102102.44;;;3.23;100.00
39341;BME280;25059;52.132;21.062;2023-02-14T08:37:36;102092.00;;;3.20;100.00
39341;BME280;25059;52.132;21.062;2023-02-14T08:40:21;102105.00;;;3.20;100.00
39341;BME280;25059;52.132;21.062;2023-02-14T08:43:06;102111.06;;;3.20;100.00
39341;BME280;25059;52.132;21.062;2023-02-14T08:45:52;102108.50;;;3.22;100.00
39341;BME280;25059;52.132;21.062;2023-02-14T08:48:38;102097.13;;;3.17;100.00
39341;BME280;25059;52.132;21.062;2023-02-14T08:51:23;102098.13;;;3.23;100.00
39341;BME280;25059;52.132;21.062;2023-02-14T08:54:08;102100.03;;;3.32;100.00
39341;BME280;25059;52.132;21.062;2023-02-14T08:56:53;102104.53;;;3.41;100.00
39341;BME280;25059;52.132;21.062;2023-02-14T08:59:37;102105.69;;;3.56;100.00
39341;BME280;25059;52.132;21.062;2023-02-14T09:02:22;102106.25;;;3.40;100.00
39341;BME280;25059;52.132;21.062;2023-02-14T09:05:07;102113.91;;;3.33;100.00
39341;BME280;25059;52.132;21.062;2023-02-14T09:07:52;102101.75;;;3.32;100.00
39341;BME280;25059;52.132;21.062;2023-02-14T09:10:39;102099.22;;;3.35;100.00
39341;BME280;25059;52.132;21.062;2023-02-14T09:13:24;102113.19;;;3.41;100.00
39341;BME280;25059;52.132;21.062;2023-02-14T09:16:10;102103.84;;;3.51;100.00
39341;BME280;25059;52.132;21.062;2023-02-14T09:18:55;102111.34;;;3.82;100.00
39341;BME280;25059;52.132;21.062;2023-02-14T09:21:40;102106.28;;;3.92;100.00
39341;BME280;25059;52.132;21.062;2023-02-14T09:24:25;102115.47;;;3.71;100.00
39341;BME280;25059;52.132;21.062;2023-02-14T09:27:10;102108.69;;;3.79;100.00
39341;BME280;25059;52.132;21.062;2023-02-14T09:29:55;102100.09;;;3.85;100.00
39341;BME280;25059;52.132;21.062;2023-02-14T09:32:39;102108.13;;;3.99;100.00
39341;BME280;25059;52.132;21.062;2023-02-14T09:35:24;102105.66;;;4.06;100.00
39341;BME280;25059;52.132;21.062;2023-02-14T09:38:28;102105.38;;;3.89;100.00
39341;BME280;25059;52.132;21.062;2023-02-14T09:41:40;102109.16;;;4.08;100.00
39341;BME280;25059;52.132;21.062;2023-02-14T09:44:38;102110.66;;;3.94;100.00
39341;BME280;25059;52.132;21.062;2023-02-14T09:50:32;102109.16;;;4.08;100.00
39341;BME280;25059;52.132;21.062;2023-02-14T09:53:29;102111.03;;;4.17;100.00
39341;BME280;25059;52.132;21.062;2023-02-14T09:56:36;102109.34;;;4.20;100.00
39341;BME280;25059;52.132;21.062;2023-02-14T10:02:38;102130.59;;;3.94;100.00
39341;BME280;25059;52.132;21.062;2023-02-14T10:05:30;102138.41;;;3.94;100.00
39341;BME280;25059;52.132;21.062;2023-02-14T10:11:26;102110.16;;;4.16;100.00
39341;BME280;25059;52.132;21.062;2023-02-14T10:14:13;102118.84;;;4.17;100.00
39341;BME280;25059;52.132;21.062;2023-02-14T10:17:04;102107.66;;;4.24;100.00
39341;BME280;25059;52.132;21.062;2023-02-14T10:19:55;102112.22;;;4.37;100.00
39341;BME280;25059;52.132;21.062;2023-02-14T10:22:45;102124.63;;;3.99;100.00
39341;BME280;25059;52.132;21.062;2023-02-14T10:25:39;102108.22;;;4.05;100.00
39341;BME280;25059;52.132;21.062;2023-02-14T10:28:33;102107.34;;;4.04;100.00
39341;BME280;25059;52.132;21.062;2023-02-14T10:31:21;102109.16;;;4.08;100.00
39341;BME280;25059;52.132;21.062;2023-02-14T10:34:19;102094.63;;;4.22;100.00
39341;BME280;25059;52.132;21.062;2023-02-14T10:43:08;102100.31;;;4.56;100.00
39341;BME280;25059;52.132;21.062;2023-02-14T10:46:13;102106.31;;;4.50;100.00
39341;BME280;25059;52.132;21.062;2023-02-14T10:49:07;102110.41;;;4.33;100.00
39341;BME280;25059;52.132;21.062;2023-02-14T10:55:11;102120.44;;;4.09;100.00
39341;BME280;25059;52.132;21.062;2023-02-14T10:57:57;102110.16;;;4.16;100.00
39341;BME280;25059;52.132;21.062;2023-02-14T11:03:35;102124.19;;;4.26;100.00
39341;BME280;25059;52.132;21.062;2023-02-14T11:06:21;102115.53;;;4.27;100.00
39341;BME280;25059;52.132;21.062;2023-02-14T11:09:08;102100.53;;;4.12;100.00
39341;BME280;25059;52.132;21.062;2023-02-14T11:11:55;102117.19;;;4.24;100.00
39341;BME280;25059;52.132;21.062;2023-02-14T11:14:40;102101.56;;;4.22;100.00
39341;BME280;25059;52.132;21.062;2023-02-14T11:17:27;102116.31;;;4.23;100.00
39341;BME280;25059;52.132;21.062;2023-02-14T11:20:28;102108.66;;;4.32;100.00
39341;BME280;25059;52.132;21.062;2023-02-14T11:23:18;102110.25;;;4.22;100.00
39341;BME280;25059;52.132;21.062;2023-02-14T11:26:15;102092.81;;;4.17;100.00
39341;BME280;25059;52.132;21.062;2023-02-14T11:29:09;102101.66;;;4.28;100.00
39341;BME280;25059;52.132;21.062;2023-02-14T11:31:56;102100.91;;;4.37;100.00
39341;BME280;25059;52.132;21.062;2023-02-14T11:38:01;102087.06;;;4.39;100.00
39341;BME280;25059;52.132;21.062;2023-02-14T11:40:53;102091.47;;;4.43;100.00
39341;BME280;25059;52.132;21.062;2023-02-14T11:43:42;102092.28;;;4.41;100.00
39341;BME280;25059;52.132;21.062;2023-02-14T11:46:27;102086.44;;;4.56;100.00
39341;BME280;25059;52.132;21.062;2023-02-14T11:52:09;102081.56;;;4.81;100.00
39341;BME280;25059;52.132;21.062;2023-02-14T11:54:56;102070.28;;;4.82;100.00
39341;BME280;25059;52.132;21.062;2023-02-14T11:57:41;102072.13;;;4.93;100.00
39341;BME280;25059;52.132;21.062;2023-02-14T12:00:27;102067.00;;;4.99;100.00
39341;BME280;25059;52.132;21.062;2023-02-14T12:03:16;102063.59;;;5.04;100.00
39341;BME280;25059;52.132;21.062;2023-02-14T12:06:03;102067.06;;;5.05;100.00
39341;BME280;25059;52.132;21.062;2023-02-14T12:08:48;102059.25;;;5.05;100.00
39341;BME280;25059;52.132;21.062;2023-02-14T12:11:33;102061.72;;;4.93;100.00
39341;BME280;25059;52.132;21.062;2023-02-14T12:14:20;102063.47;;;4.94;100.00
39341;BME280;25059;52.132;21.062;2023-02-14T12:17:11;102060.22;;;5.13;100.00
39341;BME280;25059;52.132;21.062;2023-02-14T12:20:04;102056.72;;;5.11;100.00
39341;BME280;25059;52.132;21.062;2023-02-14T12:23:00;102066.44;;;5.26;100.00
39341;BME280;25059;52.132;21.062;2023-02-14T12:25:50;102061.84;;;5.03;100.00
39341;BME280;25059;52.132;21.062;2023-02-14T12:28:47;102059.16;;;4.97;100.00
39341;BME280;25059;52.132;21.062;2023-02-14T12:31:33;102064.31;;;4.93;100.00
39341;BME280;25059;52.132;21.062;2023-02-14T12:34:18;102057.28;;;4.84;100.00
39341;BME280;25059;52.132;21.062;2023-02-14T12:40:05;102056.69;;;5.08;100.00
39341;BME280;25059;52.132;21.062;2023-02-14T12:43:02;102051.78;;;5.38;100.00
39341;BME280;25059;52.132;21.062;2023-02-14T12:55:43;102053.50;;;5.36;100.00
39341;BME280;25059;52.132;21.062;2023-02-14T13:02:13;102047.47;;;5.43;100.00
39341;BME280;25059;52.132;21.062;2023-02-14T13:05:21;102054.16;;;5.15;100.00
39341;BME280;25059;52.132;21.062;2023-02-14T13:11:33;102051.09;;;4.76;100.00
39341;BME280;25059;52.132;21.062;2023-02-14T13:20:50;102054.56;;;4.75;100.00
39341;BME280;25059;52.132;21.062;2023-02-14T13:23:41;102058.06;;;4.78;100.00
39341;BME280;25059;52.132;21.062;2023-02-14T13:26:31;102053.81;;;4.85;100.00
39341;BME280;25059;52.132;21.062;2023-02-14T13:29:21;102059.09;;;4.93;100.00
39341;BME280;25059;52.132;21.062;2023-02-14T13:32:11;102058.31;;;5.00;100.00
39341;BME280;25059;52.132;21.062;2023-02-14T13:34:57;102054.97;;;5.10;100.00
39341;BME280;25059;52.132;21.062;2023-02-14T13:37:52;102064.53;;;5.11;100.00
39341;BME280;25059;52.132;21.062;2023-02-14T13:40:37;102061.75;;;4.96;100.00
39341;BME280;25059;52.132;21.062;2023-02-14T13:49:33;102060.78;;;4.88;100.00
39341;BME280;25059;52.132;21.062;2023-02-14T13:52:39;102063.31;;;4.80;100.00
39341;BME280;25059;52.132;21.062;2023-02-14T13:55:29;102052.03;;;4.81;100.00
39341;BME280;25059;52.132;21.062;2023-02-14T13:58:18;102048.69;;;4.94;100.00
39341;BME280;25059;52.132;21.062;2023-02-14T14:04:33;102049.56;;;4.95;100.00
39341;BME280;25059;52.132;21.062;2023-02-14T14:07:21;102057.25;;;4.82;100.00
39341;BME280;25059;52.132;21.062;2023-02-14T14:10:10;102046.91;;;4.89;100.00
39341;BME280;25059;52.132;21.062;2023-02-14T14:12:55;102061.84;;;5.05;100.00
39341;BME280;25059;52.132;21.062;2023-02-14T14:22:11;102047.13;;;5.08;100.00
39341;BME280;25059;52.132;21.062;2023-02-14T14:25:01;102046.13;;;4.97;100.00
39341;BME280;25059;52.132;21.062;2023-02-14T14:27:49;102051.34;;;4.97;100.00
39341;BME280;25059;52.132;21.062;2023-02-14T14:30:34;102054.72;;;4.89;100.00
39341;BME280;25059;52.132;21.062;2023-02-14T14:36:20;102049.31;;;4.73;100.00
39341;BME280;25059;52.132;21.062;2023-02-14T14:39:08;102058.81;;;4.68;100.00
39341;BME280;25059;52.132;21.062;2023-02-14T14:41:53;102064.91;;;4.69;100.00
39341;BME280;25059;52.132;21.062;2023-02-14T14:44:45;102064.03;;;4.70;100.00
39341;BME280;25059;52.132;21.062;2023-02-14T14:47:41;102069.16;;;4.62;100.00
39341;BME280;25059;52.132;21.062;2023-02-14T14:50:28;102065.63;;;4.57;100.00
39341;BME280;25059;52.132;21.062;2023-02-14T14:53:21;102064.63;;;4.49;100.00
39341;BME280;25059;52.132;21.062;2023-02-14T14:56:11;102060.25;;;4.46;100.00
39341;BME280;25059;52.132;21.062;2023-02-14T14:58:57;102068.13;;;4.51;100.00
39341;BME280;25059;52.132;21.062;2023-02-14T15:01:41;102059.44;;;4.49;100.00
39341;BME280;25059;52.132;21.062;2023-02-14T15:08:17;102067.09;;;4.38;100.00
39341;BME280;25059;52.132;21.062;2023-02-14T15:14:21;102058.34;;;4.35;100.00
39341;BME280;25059;52.132;21.062;2023-02-14T15:17:13;102065.38;;;4.39;100.00
39341;BME280;25059;52.132;21.062;2023-02-14T15:20:03;102063.59;;;4.36;100.00
39341;BME280;25059;52.132;21.062;2023-02-14T15:22:52;102059.19;;;4.32;100.00
39341;BME280;25059;52.132;21.062;2023-02-14T15:25:37;102063.50;;;4.30;100.00
39341;BME280;25059;52.132;21.062;2023-02-14T15:28:31;102072.13;;;4.26;100.00
39341;BME280;25059;52.132;21.062;2023-02-14T15:31:16;102060.84;;;4.26;100.00
39341;BME280;25059;52.132;21.062;2023-02-14T15:34:02;102071.28;;;4.27;100.00
39341;BME280;25059;52.132;21.062;2023-02-14T15:36:48;102068.66;;;4.27;100.00
39341;BME280;25059;52.132;21.062;2023-02-14T15:39:39;102066.88;;;4.23;100.00
39341;BME280;25059;52.132;21.062;2023-02-14T15:42:26;102069.47;;;4.23;100.00
39341;BME280;25059;52.132;21.062;2023-02-14T15:48:13;102070.31;;;4.20;100.00
39341;BME280;25059;52.132;21.062;2023-02-14T15:51:00;102072.94;;;4.22;100.00
39341;BME280;25059;52.132;21.062;2023-02-14T15:54:04;102076.34;;;4.18;100.00
39341;BME280;25059;52.132;21.062;2023-02-14T15:56:51;102072.78;;;4.13;100.00
39341;BME280;25059;52.132;21.062;2023-02-14T15:59:40;102073.66;;;4.13;100.00
39341;BME280;25059;52.132;21.062;2023-02-14T16:02:34;102071.09;;;4.15;100.00
39341;BME280;25059;52.132;21.062;2023-02-14T16:05:24;102082.31;;;4.12;100.00
39341;BME280;25059;52.132;21.062;2023-02-14T16:08:31;102087.47;;;4.08;100.00
39341;BME280;25059;52.132;21.062;2023-02-14T16:11:36;102079.59;;;4.03;100.00
39341;BME280;25059;52.132;21.062;2023-02-14T16:14:27;102095.16;;;4.02;100.00
39341;BME280;25059;52.132;21.062;2023-02-14T16:17:13;102093.47;;;4.04;100.00
39341;BME280;25059;52.132;21.062;2023-02-14T16:19:58;102096.03;;;4.02;100.00
39341;BME280;25059;52.132;21.062;2023-02-14T16:22:43;102092.56;;;4.02;100.00
39341;BME280;25059;52.132;21.062;2023-02-14T16:25:27;102097.72;;;3.99;100.00